createdAt,value
2019-04-21T00:00:52.387Z,10.90
2019-04-21T00:03:25.772Z,10.80
2019-04-21T00:06:09.425Z,10.70
2019-04-21T00:08:45.862Z,10.70
2019-04-21T00:11:16.149Z,10.70
2019-04-21T00:13:42.504Z,10.60
2019-04-21T00:16:07.107Z,10.60
2019-04-21T00:18:58.170Z,10.60
2019-04-21T00:21:31.641Z,10.50
2019-04-21T00:24:23.911Z,10.50
2019-04-21T00:27:13.899Z,10.50
2019-04-21T00:29:49.762Z,10.50
2019-04-21T00:32:03.436Z,10.40
2019-04-21T00:34:19.789Z,10.40
2019-04-21T00:37:02.517Z,10.30
2019-04-21T00:39:48.859Z,10.30
2019-04-21T00:42:14.102Z,10.20
2019-04-21T00:44:36.704Z,10.30
2019-04-21T00:47:24.217Z,10.20
2019-04-21T00:49:56.663Z,10.20
2019-04-21T00:52:53.398Z,10.20
2019-04-21T00:55:29.678Z,10.20
2019-04-21T00:58:00.387Z,10.10
2019-04-21T01:00:30.479Z,10.10
2019-04-21T01:03:14.760Z,10.00
2019-04-21T01:05:37.545Z,10.00
2019-04-21T01:07:58.019Z,10.00
2019-04-21T01:10:31.967Z,9.90
2019-04-21T01:13:18.454Z,9.90
2019-04-21T01:18:16.916Z,9.80
2019-04-21T01:20:24.803Z,9.80
2019-04-21T01:22:55.971Z,9.80
2019-04-21T01:25:33.187Z,9.80
2019-04-21T01:28:16.922Z,9.70
2019-04-21T01:30:54.807Z,9.70
2019-04-21T01:33:26.397Z,9.70
2019-04-21T01:35:55.584Z,9.70
2019-04-21T01:38:32.320Z,9.60
2019-04-21T01:41:02.237Z,9.60
2019-04-21T01:43:27.896Z,9.60
2019-04-21T01:46:03.944Z,9.50
2019-04-21T01:48:33.336Z,9.50
2019-04-21T01:51:03.768Z,9.50
2019-04-21T01:54:04.044Z,9.50
2019-04-21T01:56:51.271Z,9.40
2019-04-21T01:59:20.431Z,9.30
2019-04-21T02:02:01.687Z,9.30
2019-04-21T02:04:37.372Z,9.30
2019-04-21T02:07:03.155Z,9.30
2019-04-21T02:09:39.345Z,9.20
2019-04-21T02:12:13.480Z,9.20
2019-04-21T02:14:51.481Z,9.20
2019-04-21T02:17:19.773Z,9.20
2019-04-21T02:19:44.604Z,9.20
2019-04-21T02:22:21.563Z,9.10
2019-04-21T02:27:31.123Z,9.10
2019-04-21T02:30:03.451Z,9.10
2019-04-21T02:32:44.273Z,9.10
2019-04-21T02:35:20.787Z,9.00
2019-04-21T02:37:57.787Z,9.00
2019-04-21T02:40:21.860Z,9.00
2019-04-21T02:42:59.471Z,9.00
2019-04-21T02:45:22.903Z,9.00
2019-04-21T02:48:03.976Z,8.90
2019-04-21T02:50:25.933Z,8.90
2019-04-21T02:55:30.421Z,8.90
2019-04-21T03:00:55.582Z,8.90
2019-04-21T03:06:28.990Z,8.80
2019-04-21T03:09:05.901Z,8.80
2019-04-21T03:11:49.000Z,8.80
2019-04-21T03:14:33.170Z,8.70
2019-04-21T03:16:42.999Z,8.70
2019-04-21T03:19:06.388Z,8.70
2019-04-21T03:21:57.643Z,8.60
2019-04-21T03:24:18.517Z,8.60
2019-04-21T03:27:10.422Z,8.50
2019-04-21T03:29:29.508Z,8.40
2019-04-21T03:40:07.987Z,8.30
2019-04-21T03:44:57.403Z,8.20
2019-04-21T03:47:30.876Z,8.20
2019-04-21T03:52:42.286Z,8.10
2019-04-21T04:09:06.552Z,7.90
2019-04-21T04:13:58.126Z,7.80
2019-04-21T04:19:01.571Z,7.70
2019-04-21T04:21:43.464Z,7.70
2019-04-21T04:24:31.632Z,7.50
2019-04-21T04:27:02.371Z,7.40
2019-04-21T04:29:31.763Z,7.40
2019-04-21T04:32:14.774Z,7.40
2019-04-21T04:34:51.560Z,7.40
2019-04-21T04:37:21.473Z,7.40
2019-04-21T04:40:00.540Z,7.40
2019-04-21T04:42:41.623Z,7.30
2019-04-21T04:45:15.088Z,7.30
2019-04-21T04:47:44.921Z,7.20
2019-04-21T04:50:06.820Z,7.30
2019-04-21T04:52:48.792Z,7.20
2019-04-21T04:55:21.798Z,7.10
2019-04-21T05:00:32.810Z,7.00
2019-04-21T05:02:58.364Z,6.90
2019-04-21T05:05:30.190Z,6.90
2019-04-21T05:10:47.566Z,7.00
2019-04-21T05:13:06.469Z,7.00
2019-04-21T05:15:37.050Z,7.10
2019-04-21T05:18:05.022Z,7.20
2019-04-21T05:20:41.791Z,7.30
2019-04-21T05:23:08.992Z,7.40
2019-04-21T05:25:33.756Z,7.50
2019-04-21T05:28:04.974Z,7.50
2019-04-21T05:30:58.481Z,7.60
2019-04-21T05:33:34.422Z,7.80
2019-04-21T05:36:20.463Z,7.90
2019-04-21T05:39:10.648Z,8.00
2019-04-21T05:41:37.215Z,8.20
2019-04-21T05:44:29.173Z,8.30
2019-04-21T05:47:01.162Z,8.40
2019-04-21T05:49:36.750Z,8.50
2019-04-21T05:51:58.324Z,8.60
2019-04-21T05:54:44.043Z,8.70
2019-04-21T05:57:10.244Z,8.80
2019-04-21T05:59:47.294Z,8.90
2019-04-21T06:05:05.662Z,9.00
2019-04-21T06:07:23.105Z,9.00
2019-04-21T06:09:59.710Z,9.20
2019-04-21T06:12:29.828Z,9.30
2019-04-21T06:15:22.430Z,9.40
2019-04-21T06:17:43.936Z,9.60
2019-04-21T06:20:20.716Z,9.70
2019-04-21T06:22:54.812Z,9.80
2019-04-21T06:25:43.151Z,10.00
2019-04-21T06:27:57.247Z,10.10
2019-04-21T06:30:28.958Z,10.20
2019-04-21T06:32:52.662Z,10.40
2019-04-21T06:35:58.821Z,10.50
2019-04-21T06:38:15.248Z,10.60
2019-04-21T06:40:48.162Z,10.80
2019-04-21T06:43:27.034Z,10.90
2019-04-21T06:46:10.889Z,11.00
2019-04-21T06:48:30.164Z,11.20
2019-04-21T06:51:03.259Z,11.30
2019-04-21T06:53:29.632Z,11.40
2019-04-21T06:56:10.041Z,11.50
2019-04-21T06:58:35.603Z,11.70
2019-04-21T07:01:12.999Z,11.80
2019-04-21T07:03:42.154Z,11.90
2019-04-21T07:06:12.610Z,12.00
2019-04-21T07:08:52.949Z,12.20
2019-04-21T07:11:17.041Z,12.30
2019-04-21T07:13:50.894Z,12.50
2019-04-21T07:16:25.209Z,12.60
2019-04-21T07:21:29.969Z,12.90
2019-04-21T07:24:05.196Z,13.00
2019-04-21T07:26:31.143Z,13.20
2019-04-21T07:29:07.963Z,13.30
2019-04-21T07:31:47.271Z,13.50
2019-04-21T07:34:16.046Z,13.70
2019-04-21T07:36:56.439Z,13.80
2019-04-21T07:39:18.470Z,14.00
2019-04-21T07:41:48.536Z,14.20
2019-04-21T07:44:25.757Z,14.30
2019-04-21T07:46:58.455Z,14.50
2019-04-21T07:49:57.439Z,14.70
2019-04-21T07:52:39.535Z,14.80
2019-04-21T07:55:21.711Z,14.90
2019-04-21T07:57:37.564Z,15.00
2019-04-21T08:02:52.347Z,15.10
2019-04-21T08:05:42.380Z,15.20
2019-04-21T08:10:34.892Z,15.30
2019-04-21T08:13:09.520Z,15.50
2019-04-21T08:15:49.553Z,15.60
2019-04-21T08:18:25.387Z,15.70
2019-04-21T08:20:58.613Z,15.80
2019-04-21T08:28:35.050Z,16.00
2019-04-21T08:31:10.273Z,16.10
2019-04-21T08:33:41.418Z,16.20
2019-04-21T08:36:17.465Z,16.30
2019-04-21T08:38:48.193Z,16.40
2019-04-21T08:41:18.389Z,16.50
2019-04-21T08:43:57.435Z,16.70
2019-04-21T08:46:31.819Z,16.80
2019-04-21T08:49:20.599Z,17.00
2019-04-21T08:52:28.305Z,17.10
2019-04-21T08:55:20.286Z,17.10
2019-04-21T08:58:27.707Z,17.20
2019-04-21T09:01:23.794Z,17.40
2019-04-21T09:03:56.048Z,17.60
2019-04-21T09:09:11.866Z,17.80
2019-04-21T09:11:47.525Z,17.90
2019-04-21T09:14:19.123Z,18.10
2019-04-21T09:16:47.272Z,18.20
2019-04-21T09:19:36.774Z,18.40
2019-04-21T09:21:57.497Z,18.50
2019-04-21T09:24:31.572Z,18.50
2019-04-21T09:26:57.625Z,18.60
2019-04-21T09:29:21.768Z,18.80
2019-04-21T09:31:49.657Z,18.90
2019-04-21T09:34:25.078Z,18.90
2019-04-21T09:37:02.875Z,19.00
2019-04-21T09:39:27.561Z,19.00
2019-04-21T09:41:59.049Z,19.10
2019-04-21T09:44:37.212Z,19.20
2019-04-21T09:47:08.741Z,19.40
2019-04-21T09:49:45.378Z,19.50
2019-04-21T09:52:20.927Z,19.50
2019-04-21T09:54:56.472Z,19.50
2019-04-21T09:57:31.175Z,19.60
2019-04-21T10:00:04.860Z,19.70
2019-04-21T10:02:48.249Z,19.80
2019-04-21T10:05:12.902Z,19.90
2019-04-21T10:07:44.429Z,19.90
2019-04-21T10:10:17.228Z,20.00
2019-04-21T10:12:51.889Z,20.00
2019-04-21T10:15:24.906Z,20.00
2019-04-21T10:18:01.084Z,20.10
2019-04-21T10:23:33.876Z,20.10
2019-04-21T10:26:04.494Z,20.20
2019-04-21T10:28:39.116Z,20.20
2019-04-21T10:31:12.929Z,20.30
2019-04-21T10:33:46.785Z,20.20
2019-04-21T10:36:17.591Z,20.30
2019-04-21T10:38:51.564Z,20.30
2019-04-21T10:41:21.371Z,20.40
2019-04-21T10:43:53.341Z,20.30
2019-04-21T10:46:24.731Z,20.40
2019-04-21T10:48:55.042Z,20.40
2019-04-21T10:51:26.056Z,20.40
2019-04-21T10:53:57.823Z,20.40
2019-04-21T10:56:33.189Z,20.40
2019-04-21T10:59:02.743Z,20.40
2019-04-21T11:01:34.644Z,20.40
2019-04-21T11:04:36.739Z,20.30
2019-04-21T11:07:27.534Z,20.30
2019-04-21T11:09:58.079Z,20.50
2019-04-21T11:12:29.048Z,20.60
2019-04-21T11:15:01.251Z,20.70
2019-04-21T11:17:32.327Z,20.60
2019-04-21T11:20:04.531Z,20.60
2019-04-21T11:22:35.700Z,20.60
2019-04-21T11:25:12.887Z,20.50
2019-04-21T11:27:44.835Z,20.50
2019-04-21T11:30:17.832Z,20.60
2019-04-21T11:32:53.130Z,20.60
2019-04-21T11:35:23.534Z,20.60
2019-04-21T11:38:05.531Z,20.50
2019-04-21T11:40:27.662Z,20.50
2019-04-21T11:42:59.738Z,20.60
2019-04-21T11:45:32.690Z,20.70
2019-04-21T11:48:06.587Z,20.80
2019-04-21T11:50:37.081Z,20.90
2019-04-21T11:53:14.746Z,20.90
2019-04-21T11:55:51.784Z,20.90
2019-04-21T11:58:26.245Z,21.00
2019-04-21T12:01:00.140Z,21.10
2019-04-21T12:03:31.716Z,21.10
2019-04-21T12:06:03.655Z,21.20
2019-04-21T12:08:42.310Z,21.20
2019-04-21T12:11:18.698Z,21.30
2019-04-21T12:13:49.951Z,21.30
2019-04-21T12:16:21.116Z,21.20
2019-04-21T12:18:52.424Z,21.20
2019-04-21T12:21:25.494Z,21.30
2019-04-21T12:24:00.582Z,21.30
2019-04-21T12:26:31.827Z,21.30
2019-04-21T12:29:03.804Z,21.30
2019-04-21T12:31:52.098Z,21.20
2019-04-21T12:34:23.687Z,21.30
2019-04-21T12:36:54.986Z,21.30
2019-04-21T12:39:25.422Z,21.40
2019-04-21T12:41:58.388Z,21.40
2019-04-21T12:44:29.569Z,21.30
2019-04-21T12:47:03.695Z,21.30
2019-04-21T12:49:35.816Z,21.30
2019-04-21T12:52:07.298Z,21.30
2019-04-21T12:54:39.659Z,21.30
2019-04-21T12:57:11.611Z,21.50
2019-04-21T12:59:44.607Z,21.70
2019-04-21T13:02:17.868Z,21.70
2019-04-21T13:04:53.010Z,21.70
2019-04-21T13:07:31.243Z,21.80
2019-04-21T13:10:04.389Z,21.80
2019-04-21T13:12:35.538Z,21.70
2019-04-21T13:15:08.771Z,21.70
2019-04-21T13:17:39.434Z,21.80
2019-04-21T13:20:14.969Z,21.90
2019-04-21T13:22:46.003Z,21.80
2019-04-21T13:25:17.970Z,21.80
2019-04-21T13:27:49.199Z,21.80
2019-04-21T13:30:22.326Z,21.80
2019-04-21T13:32:53.426Z,21.90
2019-04-21T13:35:23.716Z,21.90
2019-04-21T13:37:54.426Z,21.90
2019-04-21T13:41:05.374Z,21.80
2019-04-21T13:43:29.131Z,21.80
2019-04-21T13:46:01.864Z,21.90
2019-04-21T13:48:32.826Z,21.90
2019-04-21T13:51:04.929Z,22.00
2019-04-21T13:53:36.283Z,22.10
2019-04-21T13:56:08.898Z,22.20
2019-04-21T13:58:44.398Z,22.20
2019-04-21T14:01:18.025Z,22.10
2019-04-21T14:03:51.681Z,22.10
2019-04-21T14:06:24.574Z,22.10
2019-04-21T14:08:56.898Z,22.20
2019-04-21T14:11:29.286Z,22.20
2019-04-21T14:14:00.764Z,22.20
2019-04-21T14:16:36.121Z,22.30
2019-04-21T14:19:07.570Z,22.30
2019-04-21T14:21:39.623Z,22.20
2019-04-21T14:24:10.890Z,22.10
2019-04-21T14:26:45.597Z,22.10
2019-04-21T14:29:21.758Z,22.10
2019-04-21T14:31:52.605Z,22.10
2019-04-21T14:34:23.888Z,22.10
2019-04-21T14:36:55.154Z,22.00
2019-04-21T14:39:26.376Z,22.20
2019-04-21T14:42:02.571Z,22.20
2019-04-21T14:44:33.712Z,22.20
2019-04-21T14:47:23.096Z,22.20
2019-04-21T14:50:22.278Z,22.30
2019-04-21T14:53:13.966Z,22.30
2019-04-21T14:55:46.368Z,22.30
2019-04-21T14:58:19.008Z,22.30
2019-04-21T15:01:02.380Z,22.20
2019-04-21T15:03:27.814Z,22.20
2019-04-21T15:05:59.204Z,22.30
2019-04-21T15:08:31.196Z,22.40
2019-04-21T15:11:07.072Z,22.40
2019-04-21T15:13:39.747Z,22.40
2019-04-21T15:16:14.933Z,22.40
2019-04-21T15:18:46.557Z,22.50
2019-04-21T15:21:17.471Z,22.50
2019-04-21T15:24:09.009Z,22.50
2019-04-21T15:26:42.401Z,22.50
2019-04-21T15:29:13.003Z,22.50
2019-04-21T15:31:45.364Z,22.40
2019-04-21T15:34:17.366Z,22.50
2019-04-21T15:36:50.322Z,22.40
2019-04-21T15:39:21.460Z,22.30
2019-04-21T15:41:56.721Z,22.40
2019-04-21T15:44:30.519Z,22.30
2019-04-21T15:47:06.103Z,22.30
2019-04-21T15:50:02.824Z,22.30
2019-04-21T15:52:29.972Z,22.20
2019-04-21T15:55:18.905Z,22.20
2019-04-21T15:58:10.330Z,22.20
2019-04-21T16:00:49.612Z,22.30
2019-04-21T16:03:22.564Z,22.30
2019-04-21T16:05:53.694Z,22.30
2019-04-21T16:08:24.937Z,22.30
2019-04-21T16:10:59.675Z,22.30
2019-04-21T16:13:27.711Z,22.20
2019-04-21T16:15:58.852Z,22.20
2019-04-21T16:18:30.066Z,22.20
2019-04-21T16:21:01.949Z,22.20
2019-04-21T16:23:32.932Z,22.10
2019-04-21T16:26:04.471Z,22.10
2019-04-21T16:28:35.177Z,22.10
2019-04-21T16:31:06.727Z,22.10
2019-04-21T16:33:37.087Z,22.00
2019-04-21T16:36:10.342Z,22.00
2019-04-21T16:38:40.049Z,22.00
2019-04-21T16:41:12.093Z,22.00
2019-04-21T16:43:43.073Z,22.00
2019-04-21T16:46:17.634Z,22.00
2019-04-21T16:48:49.720Z,22.00
2019-04-21T16:51:24.198Z,22.00
2019-04-21T16:54:03.930Z,21.90
2019-04-21T16:56:57.592Z,21.90
2019-04-21T16:59:39.308Z,21.90
2019-04-21T17:02:14.608Z,21.90
2019-04-21T17:04:56.177Z,21.90
2019-04-21T17:07:28.395Z,21.80
2019-04-21T17:10:04.439Z,21.70
2019-04-21T17:12:43.220Z,21.70
2019-04-21T17:15:32.394Z,21.60
2019-04-21T17:18:15.079Z,21.50
2019-04-21T17:20:43.126Z,21.50
2019-04-21T17:23:11.506Z,21.50
2019-04-21T17:25:45.345Z,21.40
2019-04-21T17:28:17.290Z,21.40
2019-04-21T17:30:50.559Z,21.30
2019-04-21T17:33:27.969Z,21.30
2019-04-21T17:35:58.647Z,21.20
2019-04-21T17:38:30.151Z,21.10
2019-04-21T17:41:13.873Z,21.00
2019-04-21T17:43:37.443Z,21.00
2019-04-21T17:46:09.043Z,20.90
2019-04-21T17:48:45.099Z,20.90
2019-04-21T17:51:40.609Z,20.90
2019-04-21T17:54:29.818Z,20.80
2019-04-21T17:57:11.429Z,20.70
2019-04-21T17:59:58.862Z,20.60
2019-04-21T18:02:21.450Z,20.50
2019-04-21T18:04:57.871Z,20.40
2019-04-21T18:07:36.358Z,20.30
2019-04-21T18:10:25.683Z,20.20
2019-04-21T18:12:40.067Z,20.20
2019-04-21T18:15:16.746Z,20.10
2019-04-21T18:17:32.413Z,20.00
2019-04-21T18:20:03.853Z,19.90
2019-04-21T18:22:54.685Z,19.80
2019-04-21T18:25:42.307Z,19.60
2019-04-21T18:27:58.931Z,19.50
2019-04-21T18:30:48.682Z,19.30
2019-04-21T18:33:25.037Z,19.10
2019-04-21T18:36:15.837Z,18.90
2019-04-21T18:39:21.608Z,18.80
2019-04-21T18:42:07.765Z,18.60
2019-04-21T18:45:23.377Z,18.40
2019-04-21T18:47:50.032Z,18.30
2019-04-21T18:50:55.379Z,18.10
2019-04-21T18:53:48.070Z,18.00
2019-04-21T18:56:14.722Z,17.80
2019-04-21T18:58:44.531Z,17.70
2019-04-21T19:01:22.415Z,17.60
2019-04-21T19:03:52.855Z,17.50
2019-04-21T19:06:43.845Z,17.40
2019-04-21T19:09:14.970Z,17.20
2019-04-21T19:11:51.874Z,17.10
2019-04-21T19:17:12.068Z,16.90
2019-04-21T19:19:46.753Z,16.80
2019-04-21T19:22:13.585Z,16.70
2019-04-21T19:24:52.321Z,16.60
2019-04-21T19:27:42.143Z,16.50
2019-04-21T19:30:33.617Z,16.30
2019-04-21T19:32:51.569Z,16.30
2019-04-21T19:35:11.634Z,16.20
2019-04-21T19:37:57.622Z,16.00
2019-04-21T19:40:44.760Z,15.90
2019-04-21T19:43:05.479Z,15.80
2019-04-21T19:45:49.799Z,15.70
2019-04-21T19:48:27.508Z,15.60
2019-04-21T19:51:08.729Z,15.50
2019-04-21T19:53:44.602Z,15.40
2019-04-21T19:56:07.816Z,15.40
2019-04-21T19:58:44.318Z,15.30
2019-04-21T20:01:23.577Z,15.10
2019-04-21T20:04:00.889Z,15.10
2019-04-21T20:06:50.243Z,15.00
2019-04-21T20:09:32.455Z,14.90
2019-04-21T20:12:09.594Z,14.80
2019-04-21T20:14:55.377Z,14.80
2019-04-21T20:17:31.910Z,14.70
2019-04-21T20:19:50.431Z,14.60
2019-04-21T20:22:50.326Z,14.50
2019-04-21T20:25:21.701Z,14.40
2019-04-21T20:28:06.200Z,14.30
2019-04-21T20:30:58.338Z,14.20
2019-04-21T20:33:48.851Z,14.20
2019-04-21T20:36:09.639Z,14.10
2019-04-21T20:38:31.296Z,14.10
2019-04-21T20:41:18.039Z,14.00
2019-04-21T20:43:51.346Z,14.00
2019-04-21T20:46:36.926Z,13.90
2019-04-21T20:49:00.707Z,13.80
2019-04-21T20:51:37.581Z,13.80
2019-04-21T20:54:17.191Z,13.70
2019-04-21T20:56:56.526Z,13.70
2019-04-21T20:59:21.623Z,13.60
2019-04-21T21:01:58.298Z,13.60
2019-04-21T21:04:22.897Z,13.50
2019-04-21T21:07:06.310Z,13.50
2019-04-21T21:09:33.817Z,13.50
2019-04-21T21:12:21.983Z,13.40
2019-04-21T21:14:36.379Z,13.40
2019-04-21T21:17:28.386Z,13.30
2019-04-21T21:19:46.912Z,13.30
2019-04-21T21:22:14.311Z,13.30
2019-04-21T21:24:50.486Z,13.20
2019-04-21T21:27:26.748Z,13.20
2019-04-21T21:30:08.338Z,13.20
2019-04-21T21:32:42.976Z,13.20
2019-04-21T21:35:18.896Z,13.10
2019-04-21T21:37:54.893Z,13.10
2019-04-21T21:40:33.033Z,13.10
2019-04-21T21:42:51.149Z,13.00
2019-04-21T21:45:30.650Z,13.00
2019-04-21T21:48:18.650Z,12.90
2019-04-21T21:50:45.964Z,12.90
2019-04-21T21:53:10.446Z,12.90
2019-04-21T21:55:38.617Z,12.90
2019-04-21T21:58:10.460Z,12.90
2019-04-21T22:00:49.787Z,12.90
2019-04-21T22:03:24.477Z,12.90
2019-04-21T22:05:59.791Z,12.90
2019-04-21T22:08:36.750Z,12.90
2019-04-21T22:11:10.909Z,13.00
2019-04-21T22:13:50.949Z,13.00
2019-04-21T22:16:17.620Z,13.10
2019-04-21T22:19:07.945Z,13.10
2019-04-21T22:21:39.623Z,13.20
2019-04-21T22:23:59.361Z,13.30
2019-04-21T22:26:23.066Z,13.40
2019-04-21T22:28:53.904Z,13.40
2019-04-21T22:31:30.070Z,13.50
2019-04-21T22:34:05.206Z,13.60
2019-04-21T22:36:47.301Z,13.60
2019-04-21T22:39:28.436Z,13.60
2019-04-21T22:41:46.754Z,13.50
2019-04-21T22:44:20.651Z,13.40
2019-04-21T22:47:02.189Z,13.30
2019-04-21T22:49:23.813Z,13.20
2019-04-21T22:51:55.688Z,13.10
2019-04-21T22:54:34.190Z,13.00
2019-04-21T22:57:08.609Z,13.00
2019-04-21T22:59:35.536Z,12.90
2019-04-21T23:02:13.689Z,12.90
2019-04-21T23:04:43.510Z,12.80
2019-04-21T23:07:14.043Z,12.70
2019-04-21T23:09:43.288Z,12.70
2019-04-21T23:12:22.879Z,12.70
2019-04-21T23:14:55.489Z,12.60
2019-04-21T23:17:37.842Z,12.60
2019-04-21T23:20:13.284Z,12.50
2019-04-21T23:22:52.648Z,12.50
2019-04-21T23:25:12.374Z,12.40
2019-04-21T23:27:47.012Z,12.40
2019-04-21T23:30:26.391Z,12.30
2019-04-21T23:32:42.222Z,12.20
2019-04-21T23:35:16.534Z,12.20
2019-04-21T23:37:44.655Z,12.10
2019-04-21T23:40:17.618Z,12.00
2019-04-21T23:42:45.062Z,11.90
2019-04-21T23:45:18.301Z,11.90
2019-04-21T23:47:58.598Z,11.80
2019-04-21T23:50:30.201Z,11.80
2019-04-21T23:52:50.481Z,11.70
2019-04-21T23:55:21.088Z,11.70
2019-04-21T23:58:03.361Z,11.60
